createdAt,value
2023-06-17T00:01:20.838Z,14.80
2023-06-17T00:03:48.388Z,8.50
2023-06-17T00:06:15.852Z,34.70
2023-06-17T00:08:43.304Z,30.07
2023-06-17T00:11:11.963Z,15.53
2023-06-17T00:13:39.859Z,36.00
2023-06-17T00:16:07.390Z,36.77
2023-06-17T00:18:36.231Z,25.20
2023-06-17T00:21:03.934Z,14.97
2023-06-17T00:23:32.071Z,12.27
2023-06-17T00:25:59.605Z,19.50
2023-06-17T00:28:27.059Z,27.53
2023-06-17T00:30:54.556Z,27.43
2023-06-17T00:33:21.990Z,20.40
2023-06-17T00:35:51.862Z,11.87
2023-06-17T00:38:20.409Z,20.00
2023-06-17T00:40:47.849Z,13.10
2023-06-17T00:43:15.510Z,10.00
2023-06-17T00:45:43.032Z,7.70
2023-06-17T00:48:12.010Z,9.07
2023-06-17T00:50:39.976Z,11.43
2023-06-17T00:53:09.137Z,9.57
2023-06-17T00:55:37.040Z,14.13
2023-06-17T00:58:05.068Z,13.33
2023-06-17T01:00:32.513Z,9.63
2023-06-17T01:03:00.227Z,21.00
2023-06-17T01:05:28.418Z,16.70
2023-06-17T01:08:11.264Z,9.20
2023-06-17T01:10:46.706Z,10.47
2023-06-17T01:13:17.148Z,12.83
2023-06-17T01:15:45.643Z,21.70
2023-06-17T01:18:19.001Z,25.57
2023-06-17T01:20:48.243Z,20.40
2023-06-17T01:23:16.946Z,16.33
2023-06-17T01:25:47.075Z,19.67
2023-06-17T01:28:17.752Z,17.17
2023-06-17T01:30:46.152Z,24.23
2023-06-17T01:33:14.763Z,26.07
2023-06-17T01:35:47.991Z,16.23
2023-06-17T01:38:21.076Z,8.03
2023-06-17T01:40:59.728Z,12.77
2023-06-17T01:43:28.141Z,15.13
2023-06-17T01:45:57.554Z,10.17
2023-06-17T01:48:25.475Z,12.20
2023-06-17T01:50:53.195Z,21.43
2023-06-17T01:53:20.789Z,21.47
2023-06-17T01:55:48.279Z,13.97
2023-06-17T01:58:17.144Z,25.63
2023-06-17T02:00:44.620Z,14.40
2023-06-17T02:03:12.199Z,11.50
2023-06-17T02:05:39.686Z,23.03
2023-06-17T02:08:07.336Z,16.63
2023-06-17T02:10:34.912Z,25.00
2023-06-17T02:13:04.474Z,8.80
2023-06-17T02:15:33.249Z,10.63
2023-06-17T02:18:01.696Z,8.47
2023-06-17T02:20:29.306Z,8.67
2023-06-17T02:22:56.763Z,13.70
2023-06-17T02:25:24.254Z,13.93
2023-06-17T02:27:52.631Z,10.23
2023-06-17T02:30:20.502Z,15.50
2023-06-17T02:32:49.560Z,12.77
2023-06-17T02:35:17.268Z,21.77
2023-06-17T02:37:45.558Z,12.20
2023-06-17T02:40:13.135Z,8.33
2023-06-17T02:42:40.993Z,8.43
2023-06-17T02:45:12.267Z,13.60
2023-06-17T02:47:39.864Z,11.27
2023-06-17T02:50:09.597Z,10.57
2023-06-17T02:52:38.390Z,8.97
2023-06-17T02:55:06.968Z,11.40
2023-06-17T02:57:34.502Z,13.63
2023-06-17T03:00:02.025Z,9.90
2023-06-17T03:02:29.554Z,27.30
2023-06-17T03:04:57.882Z,16.03
2023-06-17T03:07:26.636Z,19.20
2023-06-17T03:09:54.088Z,17.47
2023-06-17T03:12:21.513Z,14.97
2023-06-17T03:14:49.056Z,12.10
2023-06-17T03:17:16.533Z,11.77
2023-06-17T03:19:44.882Z,18.60
2023-06-17T03:22:12.462Z,15.37
2023-06-17T03:24:41.420Z,10.13
2023-06-17T03:27:08.950Z,10.27
2023-06-17T03:29:36.618Z,11.00
2023-06-17T03:32:04.550Z,11.13
2023-06-17T03:34:32.623Z,11.13
2023-06-17T03:37:00.085Z,11.03
2023-06-17T03:39:27.565Z,10.43
2023-06-17T03:41:56.288Z,11.40
2023-06-17T03:44:23.703Z,11.07
2023-06-17T03:46:51.158Z,11.37
2023-06-17T03:49:18.607Z,10.60
2023-06-17T03:51:46.071Z,11.50
2023-06-17T03:54:13.478Z,11.20
2023-06-17T03:56:41.404Z,12.00
2023-06-17T03:59:12.149Z,15.13
2023-06-17T04:01:41.372Z,12.73
2023-06-17T04:04:08.960Z,11.67
2023-06-17T04:06:37.138Z,12.27
2023-06-17T04:09:05.019Z,12.57
2023-06-17T04:11:34.032Z,12.30
2023-06-17T04:14:01.632Z,12.60
2023-06-17T04:16:31.776Z,12.77
2023-06-17T04:18:59.572Z,11.43
2023-06-17T04:21:27.690Z,12.73
2023-06-17T04:23:55.177Z,13.77
2023-06-17T04:26:24.013Z,12.23
2023-06-17T04:28:51.479Z,12.30
2023-06-17T04:31:18.920Z,12.17
2023-06-17T04:33:47.783Z,12.87
2023-06-17T04:36:15.561Z,12.93
2023-06-17T04:38:43.066Z,13.20
2023-06-17T04:41:10.581Z,12.30
2023-06-17T04:43:38.847Z,14.10
2023-06-17T04:46:07.119Z,12.83
2023-06-17T04:48:34.859Z,13.87
2023-06-17T04:51:03.692Z,13.50
2023-06-17T04:53:31.136Z,14.03
2023-06-17T04:55:58.735Z,14.80
2023-06-17T04:58:26.269Z,13.10
2023-06-17T05:00:53.787Z,14.37
2023-06-17T05:03:21.284Z,15.07
2023-06-17T05:05:48.928Z,14.43
2023-06-17T05:08:17.699Z,14.50
2023-06-17T05:10:45.171Z,15.83
2023-06-17T05:13:12.607Z,16.10
2023-06-17T05:15:40.040Z,17.20
2023-06-17T05:18:07.592Z,16.87
2023-06-17T05:20:35.138Z,16.33
2023-06-17T05:23:02.660Z,16.27
2023-06-17T05:25:31.397Z,16.50
2023-06-17T05:27:58.850Z,18.10
2023-06-17T05:30:26.336Z,17.23
2023-06-17T05:32:53.859Z,16.47
2023-06-17T05:35:21.414Z,16.77
2023-06-17T05:37:48.878Z,17.03
2023-06-17T05:40:16.418Z,17.53
2023-06-17T05:42:45.166Z,16.77
2023-06-17T05:45:12.799Z,16.37
2023-06-17T05:47:40.312Z,16.93
2023-06-17T05:50:08.154Z,14.73
2023-06-17T05:52:35.585Z,14.80
2023-06-17T05:55:03.012Z,15.13
2023-06-17T05:57:30.640Z,13.27
2023-06-17T05:59:59.412Z,14.80
2023-06-17T06:02:26.889Z,14.60
2023-06-17T06:04:54.357Z,14.87
2023-06-17T06:07:21.785Z,15.50
2023-06-17T06:09:49.451Z,13.77
2023-06-17T06:12:16.877Z,12.53
2023-06-17T06:14:44.949Z,14.43
2023-06-17T06:17:13.756Z,14.47
2023-06-17T06:19:41.181Z,14.30
2023-06-17T06:22:08.702Z,14.73
2023-06-17T06:24:36.169Z,14.23
2023-06-17T06:27:03.676Z,14.27
2023-06-17T06:29:31.169Z,50.43
2023-06-17T06:31:58.587Z,44.50
2023-06-17T06:34:27.312Z,49.03
2023-06-17T06:36:56.342Z,36.38
2023-06-17T06:39:23.850Z,27.02
2023-06-17T06:41:51.305Z,22.80
2023-06-17T06:44:19.228Z,20.73
2023-06-17T06:46:47.758Z,18.55
2023-06-17T06:49:15.268Z,16.45
2023-06-17T06:51:43.998Z,15.43
2023-06-17T06:54:11.467Z,14.65
2023-06-17T06:56:38.890Z,12.88
2023-06-17T06:59:06.413Z,13.60
2023-06-17T07:01:33.896Z,14.68
2023-06-17T07:04:01.479Z,12.32
2023-06-17T07:06:28.928Z,11.75
2023-06-17T07:08:57.673Z,15.25
2023-06-17T07:11:25.096Z,12.13
2023-06-17T07:13:52.557Z,12.25
2023-06-17T07:16:20.188Z,14.93
2023-06-17T07:18:47.642Z,9.85
2023-06-17T07:21:15.065Z,12.38
2023-06-17T07:23:42.516Z,13.90
2023-06-17T07:26:11.263Z,12.90
2023-06-17T07:28:38.706Z,13.13
2023-06-17T07:31:06.586Z,14.03
2023-06-17T07:33:34.163Z,14.35
2023-06-17T07:36:01.606Z,14.80
2023-06-17T07:38:29.068Z,14.47
2023-06-17T07:40:56.535Z,15.20
2023-06-17T07:43:25.362Z,14.45
2023-06-17T07:45:52.862Z,15.13
2023-06-17T07:48:20.478Z,16.42
2023-06-17T07:50:47.891Z,14.30
2023-06-17T07:53:16.357Z,14.57
2023-06-17T07:55:43.937Z,15.05
2023-06-17T07:58:11.692Z,15.60
2023-06-17T08:00:40.445Z,14.82
2023-06-17T08:03:09.144Z,15.20
2023-06-17T08:05:38.021Z,14.63
2023-06-17T08:08:05.822Z,15.10
2023-06-17T08:10:33.717Z,14.23
2023-06-17T08:13:01.238Z,15.35
2023-06-17T08:15:29.388Z,14.77
2023-06-17T08:17:58.311Z,14.43
2023-06-17T08:20:25.996Z,15.55
2023-06-17T08:22:53.523Z,15.25
2023-06-17T08:25:21.765Z,15.75
2023-06-17T08:27:49.486Z,13.88
2023-06-17T08:30:17.069Z,15.80
2023-06-17T08:32:44.740Z,14.63
2023-06-17T08:35:15.453Z,14.07
2023-06-17T08:37:42.969Z,13.88
2023-06-17T08:40:11.157Z,15.05
2023-06-17T08:42:40.340Z,13.55
2023-06-17T08:45:08.887Z,13.73
2023-06-17T08:47:36.916Z,14.10
2023-06-17T08:50:05.211Z,14.35
2023-06-17T08:52:35.778Z,13.40
2023-06-17T08:55:04.044Z,12.43
2023-06-17T08:57:32.862Z,11.73
2023-06-17T09:00:00.482Z,11.57
2023-06-17T09:02:29.027Z,13.65
2023-06-17T09:04:56.756Z,13.65
2023-06-17T09:07:26.755Z,13.57
2023-06-17T09:09:56.797Z,12.07
2023-06-17T09:12:26.437Z,12.48
2023-06-17T09:14:55.688Z,11.70
2023-06-17T09:17:33.584Z,11.85
2023-06-17T09:20:11.278Z,11.90
2023-06-17T09:22:41.652Z,12.38
2023-06-17T09:25:15.503Z,12.15
2023-06-17T09:27:58.411Z,12.60
2023-06-17T09:30:30.355Z,15.05
2023-06-17T09:32:57.863Z,13.18
2023-06-17T09:35:25.478Z,12.43
2023-06-17T09:38:03.124Z,11.93
2023-06-17T09:40:35.121Z,11.32
2023-06-17T09:45:33.842Z,12.52
2023-06-17T09:48:01.284Z,14.13
2023-06-17T09:50:28.719Z,11.40
2023-06-17T09:52:57.043Z,12.23
2023-06-17T09:55:24.829Z,12.65
2023-06-17T09:57:54.805Z,11.70
2023-06-17T10:00:26.563Z,11.38
2023-06-17T10:02:55.125Z,11.18
2023-06-17T10:05:24.922Z,10.80
2023-06-17T10:07:54.829Z,11.45
2023-06-17T10:10:24.545Z,11.88
2023-06-17T10:12:56.882Z,11.20
2023-06-17T10:15:26.235Z,11.70
2023-06-17T10:17:55.899Z,10.50
2023-06-17T10:20:26.051Z,11.27
2023-06-17T10:22:56.058Z,10.55
2023-06-17T10:25:25.363Z,9.80
2023-06-17T10:27:54.617Z,9.85
2023-06-17T10:30:24.914Z,9.48
2023-06-17T10:33:00.268Z,9.18
2023-06-17T10:35:38.851Z,9.90
2023-06-17T10:38:07.628Z,9.60
2023-06-17T10:40:37.285Z,9.77
2023-06-17T10:43:22.154Z,9.70
2023-06-17T10:45:52.194Z,8.77
2023-06-17T10:48:23.341Z,10.10
2023-06-17T10:50:56.303Z,10.00
2023-06-17T10:53:29.283Z,9.57
2023-06-17T10:55:58.344Z,9.77
2023-06-17T10:58:32.810Z,9.55
2023-06-17T11:01:05.296Z,8.85
2023-06-17T11:03:33.139Z,8.55
2023-06-17T11:06:02.152Z,9.05
2023-06-17T11:08:31.292Z,8.70
2023-06-17T11:11:12.904Z,10.05
2023-06-17T11:13:43.062Z,9.48
2023-06-17T11:16:11.579Z,8.82
2023-06-17T11:18:40.076Z,8.45
2023-06-17T11:21:07.977Z,9.55
2023-06-17T11:23:36.855Z,10.10
2023-06-17T11:26:06.114Z,9.88
2023-06-17T11:28:33.995Z,9.05
2023-06-17T11:31:03.862Z,3.60
2023-06-17T11:33:32.117Z,5.43
2023-06-17T11:35:59.650Z,7.13
2023-06-17T11:38:28.301Z,8.25
2023-06-17T11:40:56.966Z,8.48
2023-06-17T11:43:27.321Z,8.05
2023-06-17T11:45:58.698Z,8.32
2023-06-17T11:48:31.381Z,5.57
2023-06-17T11:50:58.967Z,4.13
2023-06-17T11:53:30.683Z,4.03
2023-06-17T11:56:03.606Z,4.05
2023-06-17T11:58:31.291Z,4.10
2023-06-17T12:01:02.456Z,4.43
2023-06-17T12:03:31.290Z,4.90
2023-06-17T12:05:59.040Z,4.40
2023-06-17T12:08:32.363Z,4.00
2023-06-17T12:11:00.016Z,4.13
2023-06-17T12:13:38.608Z,5.22
2023-06-17T12:16:10.558Z,5.20
2023-06-17T12:18:39.377Z,4.68
2023-06-17T12:21:11.932Z,5.57
2023-06-17T12:23:39.416Z,5.55
2023-06-17T12:26:07.005Z,5.20
2023-06-17T12:28:34.500Z,5.80
2023-06-17T12:31:03.233Z,5.78
2023-06-17T12:33:31.010Z,5.97
2023-06-17T12:36:00.634Z,5.80
2023-06-17T12:38:30.486Z,5.20
2023-06-17T12:40:58.257Z,6.13
2023-06-17T12:43:25.728Z,4.85
2023-06-17T12:45:53.217Z,6.20
2023-06-17T12:48:20.677Z,4.90
2023-06-17T12:50:48.289Z,4.80
2023-06-17T12:53:17.137Z,4.90
2023-06-17T12:55:44.717Z,4.60
2023-06-17T12:58:13.010Z,4.90
2023-06-17T13:00:41.603Z,4.88
2023-06-17T13:03:09.558Z,4.57
2023-06-17T13:05:37.038Z,4.50
2023-06-17T13:08:04.677Z,4.40
2023-06-17T13:10:34.293Z,5.35
2023-06-17T13:13:01.818Z,4.80
2023-06-17T13:15:30.766Z,3.78
2023-06-17T13:17:58.429Z,4.00
2023-06-17T13:20:26.751Z,5.13
2023-06-17T13:22:54.251Z,4.30
2023-06-17T13:25:21.683Z,5.07
2023-06-17T13:27:50.486Z,5.68
2023-06-17T13:30:18.386Z,5.47
2023-06-17T13:32:46.091Z,5.38
2023-06-17T13:35:13.597Z,5.63
2023-06-17T13:37:41.006Z,4.80
2023-06-17T13:40:09.588Z,5.55
2023-06-17T13:42:37.025Z,6.22
2023-06-17T13:45:07.078Z,5.80
2023-06-17T13:47:34.643Z,6.00
2023-06-17T13:50:02.623Z,6.28
2023-06-17T13:52:30.121Z,6.72
2023-06-17T13:54:57.604Z,7.25
2023-06-17T13:57:25.060Z,7.15
2023-06-17T13:59:52.506Z,6.22
2023-06-17T14:02:21.366Z,5.28
2023-06-17T14:04:49.490Z,5.47
2023-06-17T14:07:16.934Z,4.82
2023-06-17T14:09:44.509Z,5.07
2023-06-17T14:12:12.124Z,4.35
2023-06-17T14:14:39.731Z,4.05
2023-06-17T14:17:07.611Z,3.80
2023-06-17T14:19:36.623Z,3.15
2023-06-17T14:22:07.007Z,3.53
2023-06-17T14:24:39.745Z,3.55
2023-06-17T14:27:40.847Z,4.50
2023-06-17T14:30:11.171Z,4.93
2023-06-17T14:32:39.033Z,4.78
2023-06-17T14:35:09.879Z,4.55
2023-06-17T14:37:37.641Z,4.68
2023-06-17T14:40:05.817Z,4.50
2023-06-17T14:42:34.000Z,4.13
2023-06-17T14:45:01.729Z,4.22
2023-06-17T14:47:29.442Z,4.25
2023-06-17T14:49:56.993Z,4.35
2023-06-17T14:52:27.121Z,4.47
2023-06-17T14:54:54.862Z,8.32
2023-06-17T14:57:22.817Z,4.50
2023-06-17T14:59:50.591Z,4.18
2023-06-17T15:02:36.595Z,4.75
2023-06-17T15:05:04.143Z,4.93
2023-06-17T15:07:32.913Z,5.10
2023-06-17T15:10:00.327Z,4.68
2023-06-17T15:12:27.774Z,4.47
2023-06-17T15:14:55.681Z,5.03
2023-06-17T15:17:23.219Z,5.65
2023-06-17T15:19:50.669Z,4.78
2023-06-17T15:22:18.123Z,5.15
2023-06-17T15:24:46.879Z,5.45
2023-06-17T15:27:14.366Z,5.15
2023-06-17T15:29:41.816Z,4.60
2023-06-17T15:32:09.705Z,5.13
2023-06-17T15:34:37.136Z,4.50
2023-06-17T15:37:05.243Z,4.95
2023-06-17T15:39:33.491Z,5.47
2023-06-17T15:42:02.291Z,4.70
2023-06-17T15:44:29.719Z,5.00
2023-06-17T15:46:57.175Z,5.60
2023-06-17T15:49:24.686Z,5.50
2023-06-17T15:51:52.156Z,7.25
2023-06-17T15:54:20.267Z,6.03
2023-06-17T15:56:47.887Z,5.43
2023-06-17T15:59:16.782Z,5.70
2023-06-17T16:01:44.519Z,5.50
2023-06-17T16:04:32.316Z,4.43
2023-06-17T16:07:00.176Z,4.93
2023-06-17T16:09:29.137Z,5.00
2023-06-17T16:11:56.564Z,5.13
2023-06-17T16:14:25.370Z,5.00
2023-06-17T16:16:52.961Z,5.25
2023-06-17T16:19:22.560Z,4.63
2023-06-17T16:21:50.492Z,5.25
2023-06-17T16:24:18.012Z,5.10
2023-06-17T16:26:45.499Z,5.50
2023-06-17T16:29:13.386Z,5.20
2023-06-17T16:31:42.225Z,5.32
2023-06-17T16:34:09.699Z,4.80
2023-06-17T16:36:37.160Z,5.80
2023-06-17T16:39:04.878Z,4.82
2023-06-17T16:41:32.345Z,5.18
2023-06-17T16:43:59.755Z,5.20
2023-06-17T16:46:27.241Z,5.13
2023-06-17T16:48:56.088Z,5.30
2023-06-17T16:51:23.547Z,5.32
2023-06-17T16:53:51.019Z,5.57
2023-06-17T16:56:18.609Z,4.65
2023-06-17T16:58:46.031Z,5.47
2023-06-17T17:01:13.505Z,5.32
2023-06-17T17:03:41.050Z,5.50
2023-06-17T17:06:10.023Z,5.93
2023-06-17T17:08:37.470Z,5.60
2023-06-17T17:11:05.172Z,5.32
2023-06-17T17:13:47.118Z,5.63
2023-06-17T17:16:15.834Z,5.30
2023-06-17T17:18:43.305Z,4.88
2023-06-17T17:21:12.105Z,5.55
2023-06-17T17:23:42.130Z,5.28
2023-06-17T17:26:12.970Z,4.85
2023-06-17T17:28:40.751Z,4.80
2023-06-17T17:31:08.239Z,4.53
2023-06-17T17:33:35.841Z,4.40
2023-06-17T17:36:03.444Z,6.10
2023-06-17T17:38:32.427Z,4.05
2023-06-17T17:40:59.881Z,3.90
2023-06-17T17:43:30.546Z,4.00
2023-06-17T17:45:58.547Z,4.30
2023-06-17T17:48:26.188Z,4.30
2023-06-17T17:50:53.622Z,3.60
2023-06-17T17:53:21.405Z,4.47
2023-06-17T17:55:50.402Z,4.10
2023-06-17T17:58:18.431Z,3.88
2023-06-17T18:00:46.501Z,5.05
2023-06-17T18:03:14.442Z,4.20
2023-06-17T18:05:41.948Z,4.57
2023-06-17T18:08:09.510Z,4.30
2023-06-17T18:10:36.970Z,4.18
2023-06-17T18:13:05.835Z,4.20
2023-06-17T18:15:33.276Z,4.00
2023-06-17T18:18:01.232Z,4.43
2023-06-17T18:20:28.744Z,4.78
2023-06-17T18:22:56.518Z,4.82
2023-06-17T18:25:23.958Z,4.80
2023-06-17T18:27:51.421Z,4.82
2023-06-17T18:30:20.544Z,4.25
2023-06-17T18:32:48.264Z,4.80
2023-06-17T18:35:15.957Z,5.97
2023-06-17T18:37:43.595Z,4.78
2023-06-17T18:40:12.171Z,4.63
2023-06-17T18:42:39.650Z,4.80
2023-06-17T18:45:09.775Z,4.78
2023-06-17T18:47:38.914Z,4.78
2023-06-17T18:50:07.830Z,7.20
2023-06-17T18:52:35.334Z,5.72
2023-06-17T18:55:02.780Z,5.65
2023-06-17T18:57:30.635Z,8.10
2023-06-17T18:59:58.129Z,13.65
2023-06-17T19:02:27.214Z,7.28
2023-06-17T19:04:56.861Z,8.30
2023-06-17T19:07:24.352Z,10.13
2023-06-17T19:09:51.951Z,7.07
2023-06-17T19:12:19.708Z,16.45
2023-06-17T19:14:47.231Z,28.40
2023-06-17T19:17:14.726Z,96.32
2023-06-17T19:19:42.263Z,15.87
2023-06-17T19:22:11.035Z,9.90
2023-06-17T19:24:38.652Z,7.75
2023-06-17T19:27:06.616Z,6.75
2023-06-17T19:29:34.055Z,13.05
2023-06-17T19:32:01.509Z,14.30
2023-06-17T19:34:28.918Z,34.53
2023-06-17T19:36:56.431Z,11.38
2023-06-17T19:39:25.187Z,15.15
2023-06-17T19:41:52.640Z,35.65
2023-06-17T19:44:20.094Z,27.93
2023-06-17T19:46:47.587Z,51.73
2023-06-17T19:49:15.098Z,40.83
2023-06-17T19:51:42.513Z,10.95
2023-06-17T19:54:10.042Z,7.97
2023-06-17T19:56:38.810Z,8.57
2023-06-17T19:59:06.322Z,8.88
2023-06-17T20:01:33.819Z,8.35
2023-06-17T20:04:01.291Z,9.32
2023-06-17T20:06:28.820Z,10.13
2023-06-17T20:08:56.265Z,10.97
2023-06-17T20:11:25.658Z,9.47
2023-06-17T20:13:54.518Z,12.50
2023-06-17T20:16:22.293Z,10.73
2023-06-17T20:18:49.801Z,10.17
2023-06-17T20:21:17.746Z,10.95
2023-06-17T20:23:45.231Z,16.13
2023-06-17T20:26:12.722Z,16.27
2023-06-17T20:28:40.228Z,11.87
2023-06-17T20:31:09.865Z,12.10
2023-06-17T20:33:38.828Z,12.90
2023-06-17T20:36:06.797Z,14.93
2023-06-17T20:38:34.266Z,16.00
2023-06-17T20:41:02.499Z,15.80
2023-06-17T20:43:30.038Z,13.87
2023-06-17T20:45:57.939Z,12.13
2023-06-17T20:48:30.069Z,11.63
2023-06-17T20:50:57.533Z,12.43
2023-06-17T20:53:25.003Z,11.30
2023-06-17T20:55:52.471Z,12.97
2023-06-17T20:58:19.906Z,11.70
2023-06-17T21:00:47.558Z,10.93
2023-06-17T21:03:15.495Z,14.07
2023-06-17T21:05:44.405Z,13.27
2023-06-17T21:08:11.854Z,16.33
2023-06-17T21:10:39.413Z,18.57
2023-06-17T21:13:07.167Z,13.83
2023-06-17T21:15:34.625Z,18.50
2023-06-17T21:18:02.198Z,14.97
2023-06-17T21:20:29.887Z,14.50
2023-06-17T21:23:00.774Z,14.03
2023-06-17T21:25:28.421Z,13.70
2023-06-17T21:27:56.487Z,14.13
2023-06-17T21:30:24.575Z,13.40
2023-06-17T21:32:52.265Z,15.03
2023-06-17T21:35:19.746Z,18.10
2023-06-17T21:37:47.355Z,21.87
2023-06-17T21:40:16.446Z,19.63
2023-06-17T21:42:43.875Z,15.80
2023-06-17T21:45:11.722Z,21.17
2023-06-17T21:47:39.186Z,28.97
2023-06-17T21:50:07.933Z,20.00
2023-06-17T21:52:35.411Z,17.47
2023-06-17T21:55:03.989Z,35.07
2023-06-17T21:57:32.962Z,15.90
2023-06-17T22:00:00.538Z,17.03
2023-06-17T22:02:28.328Z,35.00
2023-06-17T22:04:55.976Z,32.90
2023-06-17T22:07:23.423Z,26.90
2023-06-17T22:09:51.010Z,21.35
2023-06-17T22:12:18.575Z,21.97
2023-06-17T22:14:47.363Z,14.97
2023-06-17T22:17:14.810Z,16.30
2023-06-17T22:19:42.313Z,16.90
2023-06-17T22:22:09.770Z,16.43
2023-06-17T22:24:38.672Z,17.33
2023-06-17T22:27:07.575Z,19.67
2023-06-17T22:29:34.980Z,22.87
2023-06-17T22:32:03.955Z,22.23
2023-06-17T22:34:31.378Z,28.67
2023-06-17T22:36:58.857Z,35.27
2023-06-17T22:39:26.268Z,49.17
2023-06-17T22:41:53.955Z,23.10
2023-06-17T22:44:21.758Z,34.50
2023-06-17T22:46:49.364Z,23.63
2023-06-17T22:49:18.211Z,25.50
2023-06-17T22:51:45.685Z,25.57
2023-06-17T22:54:13.702Z,35.63
2023-06-17T22:56:41.974Z,46.37
2023-06-17T22:59:09.442Z,27.50
2023-06-17T23:01:36.908Z,22.43
2023-06-17T23:04:04.456Z,33.90
2023-06-17T23:06:33.265Z,23.97
2023-06-17T23:09:00.693Z,22.10
2023-06-17T23:11:28.129Z,22.87
2023-06-17T23:13:55.830Z,19.47
2023-06-17T23:16:23.297Z,19.43
2023-06-17T23:18:50.745Z,23.33
2023-06-17T23:21:19.773Z,27.83
2023-06-17T23:23:49.706Z,24.60
2023-06-17T23:26:17.643Z,20.70
2023-06-17T23:28:45.518Z,22.77
2023-06-17T23:31:14.981Z,22.13
2023-06-17T23:33:42.636Z,35.17
2023-06-17T23:36:10.393Z,27.00
2023-06-17T23:38:40.668Z,29.97
2023-06-17T23:41:09.559Z,31.67
2023-06-17T23:43:37.018Z,33.73
2023-06-17T23:46:04.735Z,36.80
2023-06-17T23:48:33.059Z,34.63
2023-06-17T23:51:00.651Z,38.83
2023-06-17T23:53:28.140Z,21.40
2023-06-17T23:55:56.006Z,31.80
2023-06-17T23:58:26.129Z,22.03
